Time;durP1;ratioP1;P1;durP2;ratioP2;P2;SDS_P1;SDS_P2;PMS_P1;PMS_P2;Temp;Humidity;BMP_temperature;BMP_pressure;BME280_temperature;BME280_humidity;BME280_pressure;Samples;Min_cycle;Max_cycle;Signal;HPM_P1;HPM_P2
2023/12/16 00:00:45;;;;;;;6.50;0.90;;;;;;;15.99;43.44;103907.63;5049379;28;20029;-77
2023/12/16 00:03:11;;;;;;;10.93;1.23;;;;;;;15.59;43.83;103906.91;5056845;28;20032;-77
2023/12/16 00:05:37;;;;;;;6.17;1.40;;;;;;;16.00;43.27;103912.03;5048646;28;20037;-77
2023/12/16 00:08:02;;;;;;;7.20;1.77;;;;;;;16.25;42.96;103915.03;5056682;28;20108;-77
2023/12/16 00:10:28;;;;;;;5.30;1.43;;;;;;;16.02;43.42;103912.06;5069907;28;20039;-77
2023/12/16 00:12:53;;;;;;;7.77;1.07;;;;;;;15.20;45.14;103924.66;5068437;28;20032;-77
2023/12/16 00:15:18;;;;;;;5.77;2.10;;;;;;;14.93;45.31;103919.69;5069076;28;20036;-77
2023/12/16 00:17:44;;;;;;;6.67;1.60;;;;;;;15.36;45.24;103904.75;5055430;28;20353;-78
2023/12/16 00:20:09;;;;;;;4.33;1.37;;;;;;;14.80;46.22;103917.69;5067115;28;20113;-78
2023/12/16 00:22:38;;;;;;;9.60;1.77;;;;;;;15.63;44.70;103900.81;5049677;28;20025;-77
2023/12/16 00:25:06;;;;;;;8.23;2.27;;;;;;;14.87;45.87;103912.56;5062103;28;20524;-77
2023/12/16 00:27:32;;;;;;;5.73;1.17;;;;;;;14.96;46.11;103914.53;5054864;28;20114;-77
2023/12/16 00:29:57;;;;;;;11.30;1.90;;;;;;;14.27;47.36;103900.69;5072347;28;20644;-77
2023/12/16 00:32:22;;;;;;;3.97;1.27;;;;;;;14.78;46.64;103903.59;5074016;28;20056;-78
2023/12/16 00:34:48;;;;;;;8.07;1.93;;;;;;;14.61;46.75;103900.56;5049605;28;20035;-77
2023/12/16 00:37:13;;;;;;;9.00;1.57;;;;;;;14.50;47.70;103902.97;5032064;28;20043;-77
2023/12/16 00:39:39;;;;;;;6.77;1.43;;;;;;;14.68;47.05;103902.50;5065823;28;20029;-77
2023/12/16 00:42:04;;;;;;;10.40;2.13;;;;;;;14.49;47.65;103901.16;5052315;28;20507;-78
2023/12/16 00:44:31;;;;;;;8.87;1.63;;;;;;;14.76;47.70;103899.16;5065205;28;20076;-78
2023/12/16 00:46:57;;;;;;;13.70;1.90;;;;;;;14.91;46.64;103905.63;5052728;28;20368;-77
2023/12/16 00:49:23;;;;;;;10.97;2.07;;;;;;;14.53;47.38;103897.75;5067097;28;20024;-77
2023/12/16 00:51:49;;;;;;;9.97;1.63;;;;;;;14.52;47.82;103895.97;5057658;28;20083;-77
2023/12/16 00:54:14;;;;;;;7.03;1.10;;;;;;;15.03;46.99;103900.59;5057250;28;20104;-77
2023/12/16 00:56:39;;;;;;;9.60;1.57;;;;;;;14.33;48.18;103900.84;5052559;28;20123;-77
2023/12/16 00:59:05;;;;;;;4.83;1.83;;;;;;;14.82;46.86;103897.53;5063669;28;20121;-78
2023/12/16 01:01:31;;;;;;;11.67;2.20;;;;;;;14.73;46.79;103899.13;5073929;28;20020;-77
2023/12/16 01:03:56;;;;;;;10.77;2.57;;;;;;;14.08;48.84;103897.63;5061520;28;20024;-77
2023/12/16 01:06:22;;;;;;;10.60;2.27;;;;;;;15.44;46.41;103892.59;5050953;28;20116;-77
2023/12/16 01:08:47;;;;;;;7.33;1.90;;;;;;;15.65;45.36;103904.41;5061501;28;20055;-77
2023/12/16 01:11:12;;;;;;;8.57;1.50;;;;;;;15.08;46.62;103903.31;5068497;28;20032;-77
2023/12/16 01:13:38;;;;;;;8.07;2.00;;;;;;;14.87;47.53;103898.53;5059529;28;20020;-77
2023/12/16 01:16:04;;;;;;;5.57;1.80;;;;;;;15.27;46.09;103883.50;5053486;28;20112;-77
2023/12/16 01:18:30;;;;;;;13.87;2.17;;;;;;;15.17;46.31;103884.19;5053553;28;20012;-78
2023/12/16 01:20:55;;;;;;;8.70;2.10;;;;;;;14.06;48.81;103882.66;5052753;28;20071;-77
2023/12/16 01:23:20;;;;;;;4.63;1.70;;;;;;;14.40;48.18;103871.16;5056434;28;20020;-77
2023/12/16 01:25:46;;;;;;;12.77;2.13;;;;;;;14.63;47.82;103877.81;5057531;28;20086;-78
2023/12/16 01:28:12;;;;;;;14.40;1.97;;;;;;;14.73;47.77;103880.69;5054738;28;20031;-78
2023/12/16 01:30:37;;;;;;;6.90;2.00;;;;;;;14.12;49.02;103885.41;5071965;28;20028;-77
2023/12/16 01:33:03;;;;;;;3.53;1.83;;;;;;;14.89;47.19;103881.00;5070797;28;20039;-77
2023/12/16 01:35:28;;;;;;;6.07;1.90;;;;;;;14.62;47.94;103887.44;5051459;28;20028;-78
2023/12/16 01:37:53;;;;;;;10.40;2.00;;;;;;;14.92;46.87;103886.34;5047558;28;20053;-77
2023/12/16 01:40:19;;;;;;;11.57;2.63;;;;;;;13.72;50.62;103890.63;5061289;28;20364;-78
2023/12/16 01:42:47;;;;;;;10.17;2.10;;;;;;;13.27;51.26;103893.78;5052650;28;20036;-77
2023/12/16 01:45:15;;;;;;;8.93;2.30;;;;;;;14.30;49.71;103884.97;5054677;28;20048;-77
2023/12/16 01:47:41;;;;;;;5.80;2.87;;;;;;;13.98;50.02;103882.47;5052205;28;20056;-78
2023/12/16 01:50:07;;;;;;;10.17;2.10;;;;;;;14.32;49.46;103890.28;5052541;28;20494;-78
2023/12/16 01:52:33;;;;;;;11.50;2.63;;;;;;;14.04;49.41;103887.88;5052127;28;20119;-78
2023/12/16 01:54:58;;;;;;;11.93;1.97;;;;;;;14.47;49.13;103887.09;5050813;28;20056;-78
2023/12/16 01:57:24;;;;;;;8.33;2.17;;;;;;;14.51;49.25;103888.94;5034388;28;20022;-77
2023/12/16 01:59:49;;;;;;;7.60;2.10;;;;;;;14.91;48.14;103889.81;5056593;28;20058;-78
2023/12/16 02:02:17;;;;;;;7.57;2.30;;;;;;;14.59;48.30;103887.38;5071317;28;20056;-78
2023/12/16 02:04:42;;;;;;;10.47;2.50;;;;;;;14.54;48.62;103875.84;5060526;28;20094;-78
2023/12/16 02:07:08;;;;;;;9.73;2.17;;;;;;;13.68;50.85;103875.63;5050575;28;20385;-77
2023/12/16 02:09:33;;;;;;;5.80;2.20;;;;;;;14.31;49.36;103881.47;5051828;28;20108;-78
2023/12/16 02:11:58;;;;;;;10.33;2.63;;;;;;;15.08;48.17;103882.25;5052408;28;20033;-77
2023/12/16 02:14:24;;;;;;;7.60;2.80;;;;;;;15.45;46.58;103880.31;5051403;28;20028;-78
2023/12/16 02:16:49;;;;;;;11.67;2.17;;;;;;;15.50;46.09;103880.41;5047476;28;20444;-78
2023/12/16 02:19:23;;;;;;;9.03;2.60;;;;;;;14.66;48.00;103889.31;5058478;28;20017;-78
2023/12/16 02:21:48;;;;;;;14.90;2.80;;;;;;;14.57;48.19;103889.06;5062372;28;20030;-78
2023/12/16 02:24:14;;;;;;;6.87;2.73;;;;;;;15.10;47.43;103891.97;5050557;28;20024;-78
2023/12/16 02:26:39;;;;;;;10.13;2.80;;;;;;;14.68;47.79;103898.13;5051022;28;20078;-77
2023/12/16 02:29:04;;;;;;;4.67;2.57;;;;;;;14.87;47.70;103896.75;5052548;28;20365;-78
2023/12/16 02:31:30;;;;;;;7.97;2.77;;;;;;;14.08;49.33;103895.00;5049841;28;20094;-78
2023/12/16 02:33:55;;;;;;;12.20;2.97;;;;;;;14.50;48.03;103887.16;5070451;28;20020;-78
2023/12/16 02:36:21;;;;;;;13.30;2.47;;;;;;;15.05;47.27;103892.72;5064666;28;20021;-78
2023/12/16 02:38:46;;;;;;;16.30;3.60;;;;;;;14.36;48.80;103893.00;5050635;28;20067;-77
2023/12/16 02:41:11;;;;;;;8.43;2.37;;;;;;;14.43;48.81;103886.13;5058262;28;20033;-78
2023/12/16 02:43:37;;;;;;;12.30;2.43;;;;;;;14.54;48.88;103889.00;5047720;28;20276;-77
2023/12/16 02:46:02;;;;;;;7.90;2.63;;;;;;;14.75;48.51;103878.97;5047565;28;20090;-78
2023/12/16 02:48:27;;;;;;;10.97;3.07;;;;;;;14.22;49.72;103876.91;5049960;28;20120;-77
2023/12/16 02:50:53;;;;;;;9.00;2.83;;;;;;;14.72;48.77;103873.63;5065729;28;20028;-78
2023/12/16 02:53:18;;;;;;;5.80;2.30;;;;;;;14.45;49.33;103873.00;5063687;28;20139;-78
2023/12/16 02:55:43;;;;;;;12.50;2.27;;;;;;;14.18;50.32;103882.06;5063304;28;20028;-77
2023/12/16 02:58:09;;;;;;;10.27;2.57;;;;;;;14.74;49.37;103881.56;5045793;28;20021;-78
2023/12/16 03:00:35;;;;;;;8.87;2.43;;;;;;;15.08;48.17;103871.72;5059761;28;20048;-78
2023/12/16 03:03:00;;;;;;;5.93;2.13;;;;;;;14.72;49.09;103873.63;5056825;28;20071;-77
2023/12/16 03:05:26;;;;;;;11.63;3.00;;;;;;;15.18;47.97;103867.50;5053357;28;20044;-78
2023/12/16 03:07:51;;;;;;;11.37;2.83;;;;;;;14.69;48.40;103878.84;5050412;28;20108;-78
2023/12/16 03:10:17;;;;;;;8.50;2.00;;;;;;;14.03;50.60;103870.31;5059598;28;20351;-77
2023/12/16 03:12:44;;;;;;;11.57;2.53;;;;;;;14.86;49.33;103876.53;5069475;28;20107;-77
2023/12/16 03:15:09;;;;;;;7.43;2.33;;;;;;;15.01;48.01;103870.69;5065619;28;20032;-77
2023/12/16 03:17:35;;;;;;;8.83;2.60;;;;;;;14.25;49.96;103886.63;5055029;28;20077;-78
2023/12/16 03:20:00;;;;;;;11.20;3.17;;;;;;;14.31;50.38;103875.34;5055271;28;20032;-77
2023/12/16 03:22:25;;;;;;;9.23;2.30;;;;;;;15.06;48.74;103869.06;5057150;28;20053;-78
2023/12/16 03:24:51;;;;;;;9.07;3.37;;;;;;;15.26;48.33;103863.25;5055108;28;20040;-76
2023/12/16 03:27:16;;;;;;;9.03;2.47;;;;;;;15.24;47.83;103863.25;5055611;28;20029;-78
2023/12/16 03:29:41;;;;;;;7.97;2.97;;;;;;;15.00;48.32;103876.84;5042829;28;20047;-77
2023/12/16 03:32:07;;;;;;;8.03;2.43;;;;;;;15.13;47.84;103874.47;5067669;28;20040;-77
2023/12/16 03:34:32;;;;;;;9.00;3.33;;;;;;;14.17;49.89;103872.38;5051633;28;20064;-78
2023/12/16 03:36:58;;;;;;;8.30;2.57;;;;;;;14.25;50.05;103881.34;5058129;28;20094;-78
2023/12/16 03:39:23;;;;;;;10.43;2.87;;;;;;;14.40;49.32;103886.94;5050348;28;20037;-77
2023/12/16 03:41:48;;;;;;;9.83;3.13;;;;;;;14.33;50.30;103882.41;5059898;28;20078;-78
2023/12/16 03:44:14;;;;;;;9.97;2.10;;;;;;;14.29;50.01;103877.94;5050067;28;20141;-77
2023/12/16 03:46:39;;;;;;;8.57;3.07;;;;;;;14.15;50.37;103880.25;5074928;28;20039;-77
2023/12/16 03:49:04;;;;;;;12.43;2.60;;;;;;;14.05;50.33;103873.88;5049439;28;20044;-78
2023/12/16 03:51:30;;;;;;;8.83;3.13;;;;;;;13.62;52.80;103878.06;5051041;28;20064;-78
2023/12/16 03:53:55;;;;;;;5.20;1.70;;;;;;;13.76;52.65;103870.53;5045016;28;20446;-77
2023/12/16 03:56:20;;;;;;;9.80;2.03;;;;;;;13.88;52.22;103870.84;5055147;28;20025;-78
2023/12/16 03:58:46;;;;;;;13.57;2.27;;;;;;;13.89;52.18;103874.38;5049534;28;20029;-77
2023/12/16 04:01:13;;;;;;;9.00;2.00;;;;;;;13.66;53.28;103864.16;5059995;28;20387;-78
2023/12/16 04:03:40;;;;;;;3.97;2.30;;;;;;;14.38;51.60;103858.81;5054728;28;20025;-78
2023/12/16 04:06:10;;;;;;;7.20;2.23;;;;;;;13.86;52.97;103856.78;5061029;28;20055;-77
2023/12/16 04:08:35;;;;;;;10.33;2.27;;;;;;;13.81;53.29;103852.25;5052523;28;20087;-77
2023/12/16 04:11:01;;;;;;;8.03;2.23;;;;;;;13.23;54.41;103852.50;5053111;28;20028;-77
2023/12/16 04:13:26;;;;;;;13.07;2.33;;;;;;;14.19;52.63;103849.63;5055067;28;20065;-77
2023/12/16 04:15:52;;;;;;;17.33;3.33;;;;;;;14.22;52.52;103854.97;5059184;28;20090;-78
2023/12/16 04:18:18;;;;;;;11.10;2.47;;;;;;;13.39;54.68;103854.72;5052339;28;20033;-77
2023/12/16 04:20:43;;;;;;;11.73;2.43;;;;;;;13.06;55.79;103850.31;5059803;28;20043;-77
2023/12/16 04:23:09;;;;;;;8.83;2.00;;;;;;;13.26;54.24;103855.22;5071956;28;20027;-77
2023/12/16 04:25:34;;;;;;;19.27;2.50;;;;;;;14.25;52.09;103849.78;5068754;28;20036;-78
2023/12/16 04:28:02;;;;;;;7.43;2.60;;;;;;;13.66;53.30;103848.38;5053789;28;20028;-77
2023/12/16 04:30:27;;;;;;;10.43;2.40;;;;;;;14.23;52.47;103857.63;5057595;28;20032;-78
2023/12/16 04:32:53;;;;;;;10.53;2.20;;;;;;;13.96;53.22;103852.63;5055106;28;20554;-78
2023/12/16 04:35:18;;;;;;;8.40;2.20;;;;;;;14.38;51.71;103857.09;5055267;28;20089;-77
2023/12/16 04:37:43;;;;;;;10.33;3.07;;;;;;;13.73;53.26;103855.56;5069132;28;20129;-78
2023/12/16 04:40:09;;;;;;;18.70;3.27;;;;;;;13.56;53.70;103849.91;5053603;28;20362;-77
2023/12/16 04:42:34;;;;;;;12.90;2.80;;;;;;;14.05;53.00;103858.09;5054118;28;20037;-77
2023/12/16 04:45:00;;;;;;;16.27;2.70;;;;;;;13.67;54.10;103855.44;5053019;28;20106;-78
2023/12/16 04:47:25;;;;;;;16.10;3.10;;;;;;;13.93;53.54;103852.56;5072527;28;20025;-77
2023/12/16 04:49:51;;;;;;;19.13;2.60;;;;;;;14.09;52.50;103853.78;5053855;28;20108;-78
2023/12/16 04:52:17;;;;;;;9.97;1.97;;;;;;;13.61;54.42;103855.25;5049792;28;20036;-78
2023/12/16 04:54:43;;;;;;;10.40;2.83;;;;;;;13.32;55.36;103860.63;5035544;28;20029;-77
2023/12/16 04:57:09;;;;;;;13.43;3.53;;;;;;;13.73;54.50;103855.56;5064489;28;20039;-77
2023/12/16 04:59:34;;;;;;;15.50;2.73;;;;;;;13.96;53.67;103857.88;5048202;28;20404;-77
2023/12/16 05:02:00;;;;;;;14.57;2.20;;;;;;;13.92;53.86;103858.66;5032329;28;20029;-76
2023/12/16 05:04:25;;;;;;;15.37;2.60;;;;;;;14.15;53.35;103866.19;5040353;28;20021;-77
2023/12/16 05:06:51;;;;;;;9.97;2.33;;;;;;;14.22;52.71;103860.25;5061459;28;20040;-77
2023/12/16 05:09:16;;;;;;;9.20;2.30;;;;;;;14.45;52.66;103867.75;5051911;28;20040;-78
2023/12/16 05:11:42;;;;;;;8.23;2.53;;;;;;;14.28;52.53;103862.13;5051787;28;20033;-77
2023/12/16 05:14:07;;;;;;;18.20;2.57;;;;;;;14.69;51.73;103857.78;5033144;28;20113;-77
2023/12/16 05:16:33;;;;;;;11.80;2.70;;;;;;;14.37;51.89;103849.16;5050302;28;20074;-77
2023/12/16 05:19:03;;;;;;;8.47;1.93;;;;;;;14.65;51.72;103850.66;5052383;28;20029;-77
2023/12/16 05:21:29;;;;;;;9.47;2.20;;;;;;;14.61;51.49;103848.78;5056918;28;20050;-77
2023/12/16 05:23:54;;;;;;;10.97;2.10;;;;;;;14.61;51.93;103846.16;5073040;28;20032;-78
2023/12/16 05:26:21;;;;;;;7.90;2.00;;;;;;;14.21;53.11;103855.81;5068019;28;20447;-77
2023/12/16 05:28:46;;;;;;;11.30;1.83;;;;;;;13.98;54.34;103845.66;5053098;28;20447;-77
2023/12/16 05:31:12;;;;;;;19.57;3.00;;;;;;;13.95;53.68;103842.94;5053100;28;20021;-77
2023/12/16 05:33:37;;;;;;;9.57;2.30;;;;;;;14.54;53.17;103841.63;5059478;28;20036;-77
2023/12/16 05:36:03;;;;;;;13.60;2.57;;;;;;;13.98;53.99;103840.38;5052714;28;20079;-76
2023/12/16 05:38:28;;;;;;;19.37;3.13;;;;;;;14.58;52.68;103846.09;5069462;28;20035;-77
2023/12/16 05:40:54;;;;;;;18.60;2.33;;;;;;;14.39;53.92;103842.19;5050299;28;20029;-77
2023/12/16 05:43:19;;;;;;;13.87;1.90;;;;;;;14.52;53.51;103843.31;5066580;28;20280;-76
2023/12/16 05:45:44;;;;;;;13.90;2.83;;;;;;;14.10;54.36;103847.69;5051299;28;20036;-77
2023/12/16 05:48:10;;;;;;;13.13;2.27;;;;;;;14.19;54.70;103844.38;5064682;28;20041;-77
2023/12/16 05:50:36;;;;;;;18.43;2.23;;;;;;;13.40;56.26;103848.59;5057812;28;20033;-76
2023/12/16 05:53:01;;;;;;;9.20;1.83;;;;;;;13.94;54.75;103841.16;5054978;28;20036;-77
2023/12/16 05:55:26;;;;;;;7.47;2.30;;;;;;;14.33;53.85;103840.31;5052060;28;20083;-78
2023/12/16 05:57:52;;;;;;;13.90;1.80;;;;;;;14.68;52.59;103849.84;5063981;28;20074;-78
2023/12/16 06:00:18;;;;;;;11.10;1.97;;;;;;;13.86;54.35;103850.59;5059624;28;20052;-77
2023/12/16 06:02:44;;;;;;;18.97;3.53;;;;;;;14.89;52.18;103859.91;5056359;28;20036;-78
2023/12/16 06:05:09;;;;;;;34.10;2.70;;;;;;;14.73;52.07;103853.47;5051160;28;20111;-78
2023/12/16 06:07:35;;;;;;;8.47;2.50;;;;;;;14.28;53.33;103859.50;5056575;28;20032;-78
2023/12/16 06:10:00;;;;;;;15.27;3.30;;;;;;;14.64;52.00;103859.41;5058606;28;20035;-78
2023/12/16 06:12:26;;;;;;;9.93;2.93;;;;;;;14.69;52.12;103860.41;5055004;28;20066;-77
2023/12/16 06:14:51;;;;;;;13.73;2.53;;;;;;;14.24;52.48;103853.25;5064028;28;20091;-77
2023/12/16 06:17:17;;;;;;;10.57;2.30;;;;;;;13.71;54.60;103857.28;5052964;28;20516;-78
2023/12/16 06:19:42;;;;;;;9.60;1.80;;;;;;;13.40;56.11;103860.88;5065968;28;20613;-77
2023/12/16 06:22:07;;;;;;;15.37;2.13;;;;;;;13.94;55.49;103858.69;5050912;28;20112;-78
2023/12/16 06:24:33;;;;;;;9.37;2.10;;;;;;;13.86;55.11;103858.50;5072419;28;20043;-77
2023/12/16 06:26:59;;;;;;;13.53;2.37;;;;;;;13.28;56.65;103864.00;5059359;28;20431;-78
2023/12/16 06:29:24;;;;;;;10.97;1.93;;;;;;;14.54;52.70;103866.19;5063059;28;20034;-77
2023/12/16 06:31:49;;;;;;;6.23;1.77;;;;;;;13.97;54.88;103864.03;5051625;28;20035;-78
2023/12/16 06:34:18;;;;;;;7.57;2.23;;;;;;;13.85;54.33;103864.63;5067688;28;20086;-78
2023/12/16 06:36:44;;;;;;;12.67;2.67;;;;;;;13.96;54.19;103872.75;5071383;28;20067;-78
2023/12/16 06:39:09;;;;;;;6.07;1.50;;;;;;;14.22;53.78;103871.63;5054557;28;20021;-78
2023/12/16 06:41:35;;;;;;;15.37;2.90;;;;;;;13.67;55.12;103871.19;5050216;28;20035;-77
2023/12/16 06:44:00;;;;;;;8.10;2.00;;;;;;;14.73;52.48;103870.16;5063626;28;20580;-77
2023/12/16 06:46:26;;;;;;;12.90;2.57;;;;;;;14.75;51.46;103878.97;5070730;28;20413;-77
2023/12/16 06:48:51;;;;;;;11.13;1.83;;;;;;;14.89;51.65;103876.63;5058540;28;20035;-77
2023/12/16 06:51:16;;;;;;;9.27;2.67;;;;;;;14.14;52.76;103877.59;5065512;28;20029;-77
2023/12/16 06:53:42;;;;;;;5.70;1.80;;;;;;;15.04;50.25;103870.78;5061655;28;20033;-77
2023/12/16 06:56:07;;;;;;;11.73;1.97;;;;;;;14.34;51.87;103886.84;5070582;28;20039;-77
2023/12/16 06:58:34;;;;;;;13.07;2.13;;;;;;;13.94;53.45;103890.25;5060539;28;20105;-77
2023/12/16 07:01:03;;;;;;;9.80;2.10;;;;;;;13.92;53.64;103887.59;5063655;28;20115;-77
2023/12/16 07:03:28;;;;;;;8.43;2.20;;;;;;;13.71;54.83;103890.53;5051206;28;20405;-77
2023/12/16 07:05:57;;;;;;;12.10;2.40;;;;;;;13.62;54.76;103877.19;5047010;28;20534;-77
2023/12/16 07:08:23;;;;;;;13.70;2.20;;;;;;;13.72;54.50;103880.09;5058615;28;20029;-77
2023/12/16 07:10:48;;;;;;;10.47;2.47;;;;;;;13.39;55.50;103881.00;5050117;28;20112;-77
2023/12/16 07:13:13;;;;;;;13.40;1.67;;;;;;;13.16;57.07;103877.72;5051439;28;20044;-77
2023/12/16 07:15:39;;;;;;;17.57;3.43;;;;;;;13.47;55.55;103885.56;5046652;28;20029;-77
2023/12/16 07:18:06;;;;;;;4.57;1.67;;;;;;;13.67;54.92;103886.97;5054572;28;20016;-76
2023/12/16 07:20:32;;;;;;;6.90;1.77;;;;;;;13.49;55.58;103891.72;5061016;28;20021;-77
2023/12/16 07:22:57;;;;;;;11.50;1.97;;;;;;;13.32;56.06;103889.50;5052305;28;20405;-78
2023/12/16 07:25:23;;;;;;;12.23;2.90;;;;;;;13.35;55.43;103892.28;5055685;28;20086;-77
2023/12/16 07:27:48;;;;;;;7.97;1.77;;;;;;;13.65;55.49;103893.03;5051174;28;20032;-78
2023/12/16 07:30:16;;;;;;;11.47;2.77;;;;;;;13.20;56.71;103908.47;5063981;28;20086;-77
2023/12/16 07:32:41;;;;;;;10.53;2.07;;;;;;;13.20;57.39;103904.94;5049308;28;20123;-77
2023/12/16 07:35:12;;;;;;;16.93;2.07;;;;;;;13.74;55.33;103903.78;5050495;28;20116;-77
2023/12/16 07:37:39;;;;;;;14.33;2.03;;;;;;;13.74;55.19;103899.41;5051404;28;20053;-77
2023/12/16 07:40:04;;;;;;;8.60;2.90;;;;;;;13.24;57.27;103902.44;5065141;28;20123;-77
2023/12/16 07:42:30;;;;;;;13.20;2.37;;;;;;;13.55;57.07;103902.41;5047497;28;20103;-77
2023/12/16 07:44:55;;;;;;;15.07;1.80;;;;;;;13.63;56.47;103906.13;5066060;28;20135;-76
2023/12/16 07:47:20;;;;;;;13.37;2.10;;;;;;;14.03;54.96;103893.13;5058748;28;20064;-77
2023/12/16 07:49:46;;;;;;;11.30;2.27;;;;;;;13.54;56.35;103895.38;5049878;28;20037;-77
2023/12/16 07:52:12;;;;;;;17.67;2.10;;;;;;;13.79;56.12;103888.13;5066112;28;20082;-77
2023/12/16 07:54:37;;;;;;;9.37;2.10;;;;;;;13.55;56.52;103889.28;5064686;28;20033;-77
2023/12/16 07:57:03;;;;;;;10.90;3.10;;;;;;;13.52;56.72;103884.84;5049298;28;20063;-77
2023/12/16 07:59:30;;;;;;;9.67;2.00;;;;;;;13.58;56.73;103881.47;5049900;28;20075;-77
2023/12/16 08:01:56;;;;;;;15.80;2.27;;;;;;;13.29;57.83;103889.44;5045453;28;20393;-77
2023/12/16 08:04:21;;;;;;;14.70;2.60;;;;;;;13.87;56.05;103889.22;5064089;28;20060;-77
2023/12/16 08:06:47;;;;;;;6.80;2.13;;;;;;;13.79;56.70;103885.50;5070871;28;20067;-77
2023/12/16 08:09:13;;;;;;;13.43;2.50;;;;;;;14.00;55.45;103893.94;5056638;28;20033;-76
2023/12/16 08:11:38;;;;;;;10.00;2.37;;;;;;;14.03;56.38;103899.25;5056291;28;20055;-77
2023/12/16 08:14:06;;;;;;;12.50;2.67;;;;;;;14.35;55.20;103904.38;5055015;28;20085;-78
2023/12/16 08:16:31;;;;;;;10.10;2.20;;;;;;;14.22;56.87;103904.97;5069704;28;20033;-77
2023/12/16 08:18:57;;;;;;;15.43;2.63;;;;;;;13.88;57.54;103896.25;5056640;28;20035;-77
2023/12/16 08:21:22;;;;;;;11.13;2.50;;;;;;;13.98;57.44;103892.09;5046808;28;20025;-77
2023/12/16 08:23:47;;;;;;;12.50;1.83;;;;;;;14.60;56.43;103899.66;5052007;28;20111;-77
2023/12/16 08:26:13;;;;;;;11.57;2.40;;;;;;;14.64;55.89;103900.66;5057109;28;20044;-78
2023/12/16 08:28:40;;;;;;;10.70;1.90;;;;;;;14.10;57.81;103896.78;5046020;28;20030;-77
2023/12/16 08:31:06;;;;;;;16.20;2.27;;;;;;;14.29;57.67;103905.97;5048510;28;20029;-77
2023/12/16 08:33:32;;;;;;;15.90;2.43;;;;;;;14.55;57.51;103906.59;5049354;28;20439;-77
2023/12/16 08:35:57;;;;;;;9.60;2.53;;;;;;;14.65;56.66;103915.59;5069417;28;20028;-78
2023/12/16 08:38:22;;;;;;;13.47;3.10;;;;;;;14.31;57.88;103923.56;5064514;28;20059;-78
2023/12/16 08:40:48;;;;;;;7.70;2.30;;;;;;;14.88;56.85;103916.09;5061020;28;20036;-78
2023/12/16 08:43:13;;;;;;;13.83;3.17;;;;;;;14.95;57.28;103917.09;5048037;28;20075;-77
2023/12/16 08:45:39;;;;;;;18.60;3.03;;;;;;;14.94;57.49;103921.50;5050153;28;20032;-77
2023/12/16 08:48:04;;;;;;;8.73;2.77;;;;;;;15.13;57.15;103927.16;5058163;28;20040;-77
2023/12/16 08:50:30;;;;;;;15.83;2.80;;;;;;;15.84;54.75;103928.47;5056713;28;20082;-78
2023/12/16 08:52:55;;;;;;;12.47;2.60;;;;;;;15.86;54.50;103932.03;5051200;28;20393;-77
2023/12/16 08:55:24;;;;;;;16.60;3.43;;;;;;;14.67;58.67;103940.22;5051943;28;20033;-77
2023/12/16 08:57:50;;;;;;;10.67;2.43;;;;;;;15.99;54.35;103935.75;5051684;28;20033;-78
2023/12/16 09:00:15;;;;;;;9.57;2.53;;;;;;;15.51;55.58;103925.25;5052599;28;20025;-77
2023/12/16 09:02:41;;;;;;;10.10;2.90;;;;;;;15.59;56.38;103928.00;5051105;28;20116;-78
2023/12/16 09:05:07;;;;;;;13.87;2.53;;;;;;;15.45;58.02;103930.38;5055892;28;20044;-78
2023/12/16 09:07:33;;;;;;;13.60;2.60;;;;;;;15.03;57.74;103937.50;5051779;28;20552;-78
2023/12/16 09:10:02;;;;;;;8.97;2.70;;;;;;;15.77;55.69;103936.25;5051389;28;20033;-77
2023/12/16 09:12:28;;;;;;;13.10;3.60;;;;;;;15.87;55.89;103950.50;5044997;28;20033;-78
2023/12/16 09:14:53;;;;;;;21.57;2.73;;;;;;;16.13;55.33;103957.09;5054693;28;20106;-78
2023/12/16 09:17:18;;;;;;;14.07;2.60;;;;;;;16.18;55.27;103951.00;5048286;28;20033;-78
2023/12/16 09:19:44;;;;;;;9.10;2.77;;;;;;;16.10;55.52;103947.34;5049752;28;20021;-77
2023/12/16 09:22:09;;;;;;;10.77;3.00;;;;;;;15.96;55.49;103952.41;5048309;28;20025;-78
2023/12/16 09:24:34;;;;;;;9.40;2.60;;;;;;;15.31;57.31;103953.84;5057357;28;20041;-78
2023/12/16 09:27:00;;;;;;;15.43;2.83;;;;;;;15.72;57.80;103959.00;5046365;28;20237;-78
2023/12/16 09:29:25;;;;;;;6.90;2.80;;;;;;;15.97;56.08;103967.38;5046691;28;20396;-78
2023/12/16 09:31:51;;;;;;;12.47;2.63;;;;;;;15.88;56.69;103975.13;5049723;28;20039;-78
2023/12/16 09:34:16;;;;;;;11.37;2.90;;;;;;;16.04;55.99;103974.53;5051551;28;20052;-78
2023/12/16 09:36:42;;;;;;;16.33;4.80;;;;;;;16.16;56.28;103967.72;5053151;28;20030;-78
2023/12/16 09:39:10;;;;;;;20.70;4.03;;;;;;;15.88;56.85;103977.78;5052566;28;20044;-78
2023/12/16 09:41:42;;;;;;;12.27;3.73;;;;;;;14.62;60.95;103982.19;5062483;28;20028;-78
2023/12/16 09:44:08;;;;;;;;;;;;;;;16.38;56.32;103972.44;5048038;28;20048;-78
2023/12/16 09:46:34;;;;;;;16.73;3.83;;;;;;;16.60;55.12;103972.78;5071852;28;19920;-78
2023/12/16 09:49:00;;;;;;;25.73;3.70;;;;;;;16.26;55.93;103980.19;5052040;28;20029;-78
2023/12/16 09:51:26;;;;;;;8.57;3.17;;;;;;;15.68;57.97;103991.47;5051427;28;20020;-78
2023/12/16 09:53:52;;;;;;;12.10;3.20;;;;;;;15.36;60.47;103988.19;5050107;28;20025;-77
2023/12/16 09:56:19;;;;;;;10.07;3.73;;;;;;;16.52;55.95;103982.34;5060002;28;20032;-79
2023/12/16 09:58:51;;;;;;;10.33;3.43;;;;;;;16.24;57.12;103981.91;5064370;28;20500;-78
2023/12/16 10:01:17;;;;;;;11.20;3.17;;;;;;;16.66;55.28;103985.19;5054812;28;20056;-78
2023/12/16 10:03:46;;;;;;;9.70;3.50;;;;;;;15.71;57.53;104001.19;5051318;28;20110;-78
2023/12/16 10:06:12;;;;;;;13.17;3.83;;;;;;;16.16;57.71;103994.09;5056377;28;20031;-78
2023/12/16 10:08:38;;;;;;;11.63;3.57;;;;;;;17.08;54.41;103984.03;5072174;28;20025;-78
2023/12/16 10:11:04;;;;;;;14.00;3.60;;;;;;;15.46;60.76;103989.28;5062420;28;20033;-78
2023/12/16 10:13:53;;;;;;;14.20;4.43;;;;;;;16.02;58.64;103986.81;5048873;28;20032;-77
2023/12/16 10:16:21;;;;;;;20.57;3.33;;;;;;;16.24;57.75;103993.34;5056962;28;20029;-77
2023/12/16 10:18:55;;;;;;;16.27;4.03;;;;;;;16.48;57.15;103980.53;5051034;28;20032;-78
2023/12/16 10:21:29;;;;;;;12.00;4.03;;;;;;;16.49;55.98;103987.59;5038599;28;20480;-78
2023/12/16 10:24:02;;;;;;;16.60;3.67;;;;;;;16.00;58.60;103977.09;5042827;28;20135;-78
2023/12/16 10:26:33;;;;;;;11.37;3.47;;;;;;;15.54;60.42;103992.97;5043284;28;20119;-78
2023/12/16 10:29:00;;;;;;;9.80;3.50;;;;;;;14.91;64.44;103995.16;5070296;28;20032;-77
2023/12/16 10:31:26;;;;;;;7.17;3.40;;;;;;;14.96;64.25;103993.53;5066455;28;20059;-78
2023/12/16 10:33:52;;;;;;;10.70;3.43;;;;;;;15.59;62.53;103993.91;5051745;28;20107;-78
2023/12/16 10:36:17;;;;;;;9.07;3.00;;;;;;;14.99;64.26;103988.31;5055257;28;20070;-78
2023/12/16 10:38:43;;;;;;;11.77;2.90;;;;;;;15.85;61.97;103988.28;5047144;28;20025;-77
2023/12/16 10:41:09;;;;;;;8.63;2.20;;;;;;;15.88;62.55;103986.59;5037271;28;20434;-77
2023/12/16 10:43:35;;;;;;;6.63;2.40;;;;;;;15.40;64.26;103982.13;5047101;28;20072;-78
2023/12/16 10:46:05;;;;;;;9.17;2.60;;;;;;;15.40;64.14;103996.22;5035726;28;20435;-77
2023/12/16 10:48:33;;;;;;;9.33;2.83;;;;;;;15.56;63.58;103985.94;5053953;28;20043;-77
2023/12/16 10:51:01;;;;;;;4.73;2.10;;;;;;;15.69;63.47;103976.50;5067517;28;20029;-76
2023/12/16 10:53:38;;;;;;;10.27;2.30;;;;;;;15.55;64.31;103979.81;5070061;28;20483;-77
2023/12/16 10:56:15;;;;;;;6.40;2.73;;;;;;;15.63;63.75;103966.75;5042816;28;20029;-76
2023/12/16 10:58:55;;;;;;;8.73;2.70;;;;;;;15.62;64.07;103962.34;5067268;28;20029;-77
2023/12/16 11:01:22;;;;;;;8.07;2.23;;;;;;;15.42;64.41;103964.59;5050610;28;20066;-77
2023/12/16 11:03:54;;;;;;;11.60;2.57;;;;;;;15.25;66.50;103974.81;5053426;28;20456;-77
2023/12/16 11:06:42;;;;;;;7.10;2.28;;;;;;;15.11;68.02;103969.25;5053224;28;20033;-77
2023/12/16 11:09:09;;;;;;;6.90;2.47;;;;;;;15.27;67.16;103967.81;5067384;28;20563;-76
2023/12/16 11:11:35;;;;;;;3.10;2.17;;;;;;;15.50;65.35;103970.03;5053245;28;20032;-77
2023/12/16 11:14:01;;;;;;;14.90;2.10;;;;;;;15.42;65.84;103956.69;5030970;28;20067;-76
2023/12/16 11:16:38;;;;;;;3.33;1.97;;;;;;;15.90;63.90;103944.41;5032368;28;20515;-76